sensor_id;sensor_type;location;lat;lon;timestamp;temperature;humidity
6843;DHT22;3460;52.028;8.916;2023-06-22T00:00:32;18.20;99.90
6843;DHT22;3460;52.028;8.916;2023-06-22T00:03:01;18.20;99.90
6843;DHT22;3460;52.028;8.916;2023-06-22T00:05:27;18.20;99.90
6843;DHT22;3460;52.028;8.916;2023-06-22T00:07:54;18.10;99.90
6843;DHT22;3460;52.028;8.916;2023-06-22T00:10:21;18.10;99.90
6843;DHT22;3460;52.028;8.916;2023-06-22T00:12:48;18.00;99.90
6843;DHT22;3460;52.028;8.916;2023-06-22T00:15:15;17.90;99.90
6843;DHT22;3460;52.028;8.916;2023-06-22T00:17:42;17.90;99.90
6843;DHT22;3460;52.028;8.916;2023-06-22T00:20:11;17.80;99.90
6843;DHT22;3460;52.028;8.916;2023-06-22T00:22:39;17.80;99.90
6843;DHT22;3460;52.028;8.916;2023-06-22T00:25:07;17.80;99.90
6843;DHT22;3460;52.028;8.916;2023-06-22T00:27:34;17.80;99.90
6843;DHT22;3460;52.028;8.916;2023-06-22T00:30:01;17.90;99.90
6843;DHT22;3460;52.028;8.916;2023-06-22T00:32:28;17.80;99.90
6843;DHT22;3460;52.028;8.916;2023-06-22T00:34:55;17.80;99.90
6843;DHT22;3460;52.028;8.916;2023-06-22T00:37:23;17.80;99.90
6843;DHT22;3460;52.028;8.916;2023-06-22T00:39:51;17.80;99.90
6843;DHT22;3460;52.028;8.916;2023-06-22T00:42:18;17.80;99.90
6843;DHT22;3460;52.028;8.916;2023-06-22T00:44:45;17.80;99.90
6843;DHT22;3460;52.028;8.916;2023-06-22T00:47:13;17.80;99.90
6843;DHT22;3460;52.028;8.916;2023-06-22T00:49:41;17.70;99.90
6843;DHT22;3460;52.028;8.916;2023-06-22T00:52:09;17.60;99.90
6843;DHT22;3460;52.028;8.916;2023-06-22T00:54:41;17.60;99.90
6843;DHT22;3460;52.028;8.916;2023-06-22T00:57:11;17.60;99.90
6843;DHT22;3460;52.028;8.916;2023-06-22T00:59:42;17.70;99.90
6843;DHT22;3460;52.028;8.916;2023-06-22T01:02:08;17.80;99.90
6843;DHT22;3460;52.028;8.916;2023-06-22T01:04:36;17.80;99.90
6843;DHT22;3460;52.028;8.916;2023-06-22T01:07:13;17.80;99.90
6843;DHT22;3460;52.028;8.916;2023-06-22T01:09:59;17.70;99.90
6843;DHT22;3460;52.028;8.916;2023-06-22T01:12:32;17.60;99.90
6843;DHT22;3460;52.028;8.916;2023-06-22T01:15:07;17.60;99.90
6843;DHT22;3460;52.028;8.916;2023-06-22T01:17:35;17.70;99.90
6843;DHT22;3460;52.028;8.916;2023-06-22T01:20:04;17.70;99.90
6843;DHT22;3460;52.028;8.916;2023-06-22T01:22:39;17.70;99.90
6843;DHT22;3460;52.028;8.916;2023-06-22T01:25:13;17.70;99.90
6843;DHT22;3460;52.028;8.916;2023-06-22T01:27:50;17.60;99.90
6843;DHT22;3460;52.028;8.916;2023-06-22T01:30:21;17.60;99.90
6843;DHT22;3460;52.028;8.916;2023-06-22T01:32:53;17.60;99.90
6843;DHT22;3460;52.028;8.916;2023-06-22T01:35:21;17.60;99.90
6843;DHT22;3460;52.028;8.916;2023-06-22T01:37:49;17.60;99.90
6843;DHT22;3460;52.028;8.916;2023-06-22T01:40:16;17.60;99.90
6843;DHT22;3460;52.028;8.916;2023-06-22T01:42:46;17.50;99.90
6843;DHT22;3460;52.028;8.916;2023-06-22T01:45:14;17.50;99.90
6843;DHT22;3460;52.028;8.916;2023-06-22T01:47:43;17.40;99.90
6843;DHT22;3460;52.028;8.916;2023-06-22T01:50:10;17.40;99.90
6843;DHT22;3460;52.028;8.916;2023-06-22T01:52:37;17.40;99.90
6843;DHT22;3460;52.028;8.916;2023-06-22T01:55:05;17.40;99.90
6843;DHT22;3460;52.028;8.916;2023-06-22T01:57:33;17.40;99.90
6843;DHT22;3460;52.028;8.916;2023-06-22T02:00:02;17.40;99.90
6843;DHT22;3460;52.028;8.916;2023-06-22T02:02:40;17.40;99.90
6843;DHT22;3460;52.028;8.916;2023-06-22T02:05:12;17.50;99.90
6843;DHT22;3460;52.028;8.916;2023-06-22T02:07:44;17.50;99.90
6843;DHT22;3460;52.028;8.916;2023-06-22T02:10:14;17.50;99.90
6843;DHT22;3460;52.028;8.916;2023-06-22T02:12:42;17.50;99.90
6843;DHT22;3460;52.028;8.916;2023-06-22T02:15:11;17.50;99.90
6843;DHT22;3460;52.028;8.916;2023-06-22T02:17:38;17.40;99.90
6843;DHT22;3460;52.028;8.916;2023-06-22T02:20:06;17.40;99.90
6843;DHT22;3460;52.028;8.916;2023-06-22T02:22:35;17.30;99.90
6843;DHT22;3460;52.028;8.916;2023-06-22T02:25:02;17.30;99.90
6843;DHT22;3460;52.028;8.916;2023-06-22T02:27:29;17.30;99.90
6843;DHT22;3460;52.028;8.916;2023-06-22T02:29:56;17.40;99.90
6843;DHT22;3460;52.028;8.916;2023-06-22T02:32:23;17.40;99.90
6843;DHT22;3460;52.028;8.916;2023-06-22T02:34:50;17.30;99.90
6843;DHT22;3460;52.028;8.916;2023-06-22T02:37:17;17.30;99.90
6843;DHT22;3460;52.028;8.916;2023-06-22T02:39:45;17.20;99.90
6843;DHT22;3460;52.028;8.916;2023-06-22T02:42:12;17.20;99.90
6843;DHT22;3460;52.028;8.916;2023-06-22T02:44:39;17.30;99.90
6843;DHT22;3460;52.028;8.916;2023-06-22T02:47:07;17.40;99.90
6843;DHT22;3460;52.028;8.916;2023-06-22T02:49:35;17.50;99.90
6843;DHT22;3460;52.028;8.916;2023-06-22T02:52:02;17.40;99.90
6843;DHT22;3460;52.028;8.916;2023-06-22T02:54:29;17.40;99.90
6843;DHT22;3460;52.028;8.916;2023-06-22T02:56:57;17.40;99.90
6843;DHT22;3460;52.028;8.916;2023-06-22T02:59:24;17.30;99.90
6843;DHT22;3460;52.028;8.916;2023-06-22T03:01:51;17.30;99.90
6843;DHT22;3460;52.028;8.916;2023-06-22T03:04:18;17.30;99.90
6843;DHT22;3460;52.028;8.916;2023-06-22T03:06:44;17.30;99.90
6843;DHT22;3460;52.028;8.916;2023-06-22T03:09:16;17.30;99.90
6843;DHT22;3460;52.028;8.916;2023-06-22T03:11:43;17.30;99.90
6843;DHT22;3460;52.028;8.916;2023-06-22T03:14:11;17.30;99.90
6843;DHT22;3460;52.028;8.916;2023-06-22T03:16:38;17.20;99.90
6843;DHT22;3460;52.028;8.916;2023-06-22T03:19:06;17.20;99.90
6843;DHT22;3460;52.028;8.916;2023-06-22T03:21:33;17.20;99.90
6843;DHT22;3460;52.028;8.916;2023-06-22T03:24:00;17.20;99.90
6843;DHT22;3460;52.028;8.916;2023-06-22T03:26:26;17.20;99.90
6843;DHT22;3460;52.028;8.916;2023-06-22T03:28:53;17.20;99.90
6843;DHT22;3460;52.028;8.916;2023-06-22T03:31:21;17.20;99.90
6843;DHT22;3460;52.028;8.916;2023-06-22T03:33:49;17.20;99.90
6843;DHT22;3460;52.028;8.916;2023-06-22T03:36:16;17.20;99.90
6843;DHT22;3460;52.028;8.916;2023-06-22T03:38:44;17.20;99.90
6843;DHT22;3460;52.028;8.916;2023-06-22T03:41:11;17.30;99.90
6843;DHT22;3460;52.028;8.916;2023-06-22T03:43:38;17.30;99.90
6843;DHT22;3460;52.028;8.916;2023-06-22T03:46:04;17.30;99.90
6843;DHT22;3460;52.028;8.916;2023-06-22T03:48:33;17.40;99.90
6843;DHT22;3460;52.028;8.916;2023-06-22T03:51:00;17.40;99.90
6843;DHT22;3460;52.028;8.916;2023-06-22T03:53:28;17.40;99.90
6843;DHT22;3460;52.028;8.916;2023-06-22T03:55:55;17.50;99.90
6843;DHT22;3460;52.028;8.916;2023-06-22T03:58:22;17.50;99.90
6843;DHT22;3460;52.028;8.916;2023-06-22T04:00:50;17.60;99.90
6843;DHT22;3460;52.028;8.916;2023-06-22T04:03:18;17.70;99.90
6843;DHT22;3460;52.028;8.916;2023-06-22T04:05:47;17.60;99.90
6843;DHT22;3460;52.028;8.916;2023-06-22T04:08:14;17.60;99.90
6843;DHT22;3460;52.028;8.916;2023-06-22T04:10:41;17.60;99.90
6843;DHT22;3460;52.028;8.916;2023-06-22T04:13:08;17.60;99.90
6843;DHT22;3460;52.028;8.916;2023-06-22T04:15:35;17.50;99.90
6843;DHT22;3460;52.028;8.916;2023-06-22T04:18:02;17.50;99.90
6843;DHT22;3460;52.028;8.916;2023-06-22T04:20:29;17.50;99.90
6843;DHT22;3460;52.028;8.916;2023-06-22T04:22:58;17.50;99.90
6843;DHT22;3460;52.028;8.916;2023-06-22T04:25:25;17.50;99.90
6843;DHT22;3460;52.028;8.916;2023-06-22T04:27:52;17.50;99.90
6843;DHT22;3460;52.028;8.916;2023-06-22T04:30:18;17.60;99.90
6843;DHT22;3460;52.028;8.916;2023-06-22T04:32:49;17.60;99.90
6843;DHT22;3460;52.028;8.916;2023-06-22T04:35:25;17.60;99.90
6843;DHT22;3460;52.028;8.916;2023-06-22T04:37:53;17.60;99.90
6843;DHT22;3460;52.028;8.916;2023-06-22T04:40:23;17.70;99.90
6843;DHT22;3460;52.028;8.916;2023-06-22T04:42:50;17.90;99.90
6843;DHT22;3460;52.028;8.916;2023-06-22T04:45:19;18.20;99.90
6843;DHT22;3460;52.028;8.916;2023-06-22T04:47:46;18.50;99.90
6843;DHT22;3460;52.028;8.916;2023-06-22T04:50:13;18.50;99.90
6843;DHT22;3460;52.028;8.916;2023-06-22T04:52:40;18.60;99.90
6843;DHT22;3460;52.028;8.916;2023-06-22T04:55:07;18.60;99.90
6843;DHT22;3460;52.028;8.916;2023-06-22T04:57:35;18.50;99.90
6843;DHT22;3460;52.028;8.916;2023-06-22T05:00:05;18.40;99.90
6843;DHT22;3460;52.028;8.916;2023-06-22T05:02:38;18.30;99.90
6843;DHT22;3460;52.028;8.916;2023-06-22T05:05:05;18.20;99.90
6843;DHT22;3460;52.028;8.916;2023-06-22T05:07:33;18.20;99.90
6843;DHT22;3460;52.028;8.916;2023-06-22T05:10:00;18.20;99.90
6843;DHT22;3460;52.028;8.916;2023-06-22T05:12:28;18.30;99.90
6843;DHT22;3460;52.028;8.916;2023-06-22T05:14:56;18.30;99.90
6843;DHT22;3460;52.028;8.916;2023-06-22T05:17:23;18.50;99.90
6843;DHT22;3460;52.028;8.916;2023-06-22T05:19:50;18.60;99.90
6843;DHT22;3460;52.028;8.916;2023-06-22T05:22:17;18.50;99.90
6843;DHT22;3460;52.028;8.916;2023-06-22T05:24:45;18.60;99.90
6843;DHT22;3460;52.028;8.916;2023-06-22T05:27:12;18.70;99.90
6843;DHT22;3460;52.028;8.916;2023-06-22T05:29:40;18.70;99.90
6843;DHT22;3460;52.028;8.916;2023-06-22T05:32:09;18.70;99.90
6843;DHT22;3460;52.028;8.916;2023-06-22T05:34:36;18.80;99.90
6843;DHT22;3460;52.028;8.916;2023-06-22T05:37:04;18.80;99.90
6843;DHT22;3460;52.028;8.916;2023-06-22T05:39:31;18.80;99.90
6843;DHT22;3460;52.028;8.916;2023-06-22T05:41:57;18.80;99.90
6843;DHT22;3460;52.028;8.916;2023-06-22T05:44:24;19.00;99.90
6843;DHT22;3460;52.028;8.916;2023-06-22T05:46:51;19.00;99.90
6843;DHT22;3460;52.028;8.916;2023-06-22T05:49:19;19.20;99.90
6843;DHT22;3460;52.028;8.916;2023-06-22T05:51:47;19.20;99.90
6843;DHT22;3460;52.028;8.916;2023-06-22T05:54:14;19.30;99.90
6843;DHT22;3460;52.028;8.916;2023-06-22T05:56:43;19.30;99.90
6843;DHT22;3460;52.028;8.916;2023-06-22T05:59:10;19.40;99.90
6843;DHT22;3460;52.028;8.916;2023-06-22T06:01:37;19.40;99.90
6843;DHT22;3460;52.028;8.916;2023-06-22T06:04:06;19.40;99.90
6843;DHT22;3460;52.028;8.916;2023-06-22T06:06:35;19.60;99.90
6843;DHT22;3460;52.028;8.916;2023-06-22T06:09:02;19.70;99.90
6843;DHT22;3460;52.028;8.916;2023-06-22T06:11:29;19.80;99.90
6843;DHT22;3460;52.028;8.916;2023-06-22T06:13:56;19.80;99.90
6843;DHT22;3460;52.028;8.916;2023-06-22T06:16:23;19.90;99.90
6843;DHT22;3460;52.028;8.916;2023-06-22T06:18:50;19.90;99.90
6843;DHT22;3460;52.028;8.916;2023-06-22T06:21:18;19.90;99.90
6843;DHT22;3460;52.028;8.916;2023-06-22T06:23:47;20.10;99.90
6843;DHT22;3460;52.028;8.916;2023-06-22T06:26:14;20.20;99.90
6843;DHT22;3460;52.028;8.916;2023-06-22T06:28:42;20.20;99.90
6843;DHT22;3460;52.028;8.916;2023-06-22T06:31:09;20.40;99.90
6843;DHT22;3460;52.028;8.916;2023-06-22T06:33:37;20.60;99.90
6843;DHT22;3460;52.028;8.916;2023-06-22T06:36:04;20.60;99.90
6843;DHT22;3460;52.028;8.916;2023-06-22T06:38:33;20.60;99.90
6843;DHT22;3460;52.028;8.916;2023-06-22T06:41:02;20.60;99.90
6843;DHT22;3460;52.028;8.916;2023-06-22T06:43:28;20.60;99.90
6843;DHT22;3460;52.028;8.916;2023-06-22T06:45:55;20.60;99.90
6843;DHT22;3460;52.028;8.916;2023-06-22T06:48:22;20.70;99.90
6843;DHT22;3460;52.028;8.916;2023-06-22T06:50:49;20.70;99.90
6843;DHT22;3460;52.028;8.916;2023-06-22T06:53:16;20.70;99.90
6843;DHT22;3460;52.028;8.916;2023-06-22T06:55:42;20.70;99.90
6843;DHT22;3460;52.028;8.916;2023-06-22T06:58:12;20.80;99.90
6843;DHT22;3460;52.028;8.916;2023-06-22T07:00:39;20.80;99.90
6843;DHT22;3460;52.028;8.916;2023-06-22T07:03:06;20.90;99.90
6843;DHT22;3460;52.028;8.916;2023-06-22T07:05:33;21.00;99.90
6843;DHT22;3460;52.028;8.916;2023-06-22T07:08:01;21.20;99.90
6843;DHT22;3460;52.028;8.916;2023-06-22T07:10:29;21.40;99.90
6843;DHT22;3460;52.028;8.916;2023-06-22T07:12:56;21.30;99.90
6843;DHT22;3460;52.028;8.916;2023-06-22T07:15:24;21.40;99.90
6843;DHT22;3460;52.028;8.916;2023-06-22T07:17:51;21.40;99.90
6843;DHT22;3460;52.028;8.916;2023-06-22T07:20:18;21.40;99.90
6843;DHT22;3460;52.028;8.916;2023-06-22T07:22:45;21.40;99.90
6843;DHT22;3460;52.028;8.916;2023-06-22T07:25:12;21.40;99.90
6843;DHT22;3460;52.028;8.916;2023-06-22T07:27:46;21.40;99.90
6843;DHT22;3460;52.028;8.916;2023-06-22T07:30:13;21.30;99.90
6843;DHT22;3460;52.028;8.916;2023-06-22T07:32:42;21.30;99.90
6843;DHT22;3460;52.028;8.916;2023-06-22T07:35:09;21.30;99.90
6843;DHT22;3460;52.028;8.916;2023-06-22T07:37:36;21.30;99.90
6843;DHT22;3460;52.028;8.916;2023-06-22T07:40:03;21.30;99.90
6843;DHT22;3460;52.028;8.916;2023-06-22T07:42:32;21.30;99.90
6843;DHT22;3460;52.028;8.916;2023-06-22T07:44:59;21.50;99.90
6843;DHT22;3460;52.028;8.916;2023-06-22T07:47:27;21.60;99.90
6843;DHT22;3460;52.028;8.916;2023-06-22T07:49:55;21.50;99.90
6843;DHT22;3460;52.028;8.916;2023-06-22T07:52:23;21.50;99.90
6843;DHT22;3460;52.028;8.916;2023-06-22T07:54:51;21.40;99.90
6843;DHT22;3460;52.028;8.916;2023-06-22T07:57:18;21.40;99.90
6843;DHT22;3460;52.028;8.916;2023-06-22T07:59:45;21.40;99.90
6843;DHT22;3460;52.028;8.916;2023-06-22T08:02:12;21.40;99.90
6843;DHT22;3460;52.028;8.916;2023-06-22T08:04:39;21.50;99.90
6843;DHT22;3460;52.028;8.916;2023-06-22T08:07:07;21.50;99.90
6843;DHT22;3460;52.028;8.916;2023-06-22T08:09:35;21.50;99.90
6843;DHT22;3460;52.028;8.916;2023-06-22T08:12:02;21.60;99.90
6843;DHT22;3460;52.028;8.916;2023-06-22T08:14:30;21.70;99.90
6843;DHT22;3460;52.028;8.916;2023-06-22T08:16:56;21.70;99.90
6843;DHT22;3460;52.028;8.916;2023-06-22T08:19:23;21.70;99.90
6843;DHT22;3460;52.028;8.916;2023-06-22T08:21:50;21.70;99.90
6843;DHT22;3460;52.028;8.916;2023-06-22T08:24:18;21.60;99.90
6843;DHT22;3460;52.028;8.916;2023-06-22T08:26:45;21.70;99.90
6843;DHT22;3460;52.028;8.916;2023-06-22T08:29:12;21.70;99.90
6843;DHT22;3460;52.028;8.916;2023-06-22T08:31:40;21.80;99.90
6843;DHT22;3460;52.028;8.916;2023-06-22T08:34:06;21.90;99.90
6843;DHT22;3460;52.028;8.916;2023-06-22T08:36:33;21.80;99.90
6843;DHT22;3460;52.028;8.916;2023-06-22T08:39:06;21.80;99.90
6843;DHT22;3460;52.028;8.916;2023-06-22T08:41:35;21.70;99.90
6843;DHT22;3460;52.028;8.916;2023-06-22T08:44:01;21.70;99.90
6843;DHT22;3460;52.028;8.916;2023-06-22T08:46:29;21.80;99.90
6843;DHT22;3460;52.028;8.916;2023-06-22T08:48:59;21.90;99.90
6843;DHT22;3460;52.028;8.916;2023-06-22T08:51:26;22.20;99.90
6843;DHT22;3460;52.028;8.916;2023-06-22T08:53:54;22.40;99.90
6843;DHT22;3460;52.028;8.916;2023-06-22T08:56:21;22.80;99.90
6843;DHT22;3460;52.028;8.916;2023-06-22T08:58:49;23.00;99.90
6843;DHT22;3460;52.028;8.916;2023-06-22T09:01:16;23.20;99.90
6843;DHT22;3460;52.028;8.916;2023-06-22T09:03:42;23.30;99.90
6843;DHT22;3460;52.028;8.916;2023-06-22T09:06:09;23.10;99.90
6843;DHT22;3460;52.028;8.916;2023-06-22T09:08:36;23.10;99.90
6843;DHT22;3460;52.028;8.916;2023-06-22T09:11:03;23.00;99.90
6843;DHT22;3460;52.028;8.916;2023-06-22T09:13:31;23.00;99.90
6843;DHT22;3460;52.028;8.916;2023-06-22T09:15:59;23.00;99.90
6843;DHT22;3460;52.028;8.916;2023-06-22T09:18:26;23.20;99.90
6843;DHT22;3460;52.028;8.916;2023-06-22T09:20:53;23.20;99.90
6843;DHT22;3460;52.028;8.916;2023-06-22T09:23:20;23.30;99.90
6843;DHT22;3460;52.028;8.916;2023-06-22T09:25:47;23.30;99.90
6843;DHT22;3460;52.028;8.916;2023-06-22T09:28:14;23.40;99.90
6843;DHT22;3460;52.028;8.916;2023-06-22T09:30:42;23.40;99.90
6843;DHT22;3460;52.028;8.916;2023-06-22T09:33:10;23.40;99.90
6843;DHT22;3460;52.028;8.916;2023-06-22T09:35:37;23.40;99.90
6843;DHT22;3460;52.028;8.916;2023-06-22T09:38:04;23.40;99.90
6843;DHT22;3460;52.028;8.916;2023-06-22T09:40:31;23.50;99.90
6843;DHT22;3460;52.028;8.916;2023-06-22T09:43:01;23.50;99.90
6843;DHT22;3460;52.028;8.916;2023-06-22T09:45:27;23.50;99.90
6843;DHT22;3460;52.028;8.916;2023-06-22T09:47:54;23.50;99.90
6843;DHT22;3460;52.028;8.916;2023-06-22T09:50:22;23.50;99.90
6843;DHT22;3460;52.028;8.916;2023-06-22T09:52:49;23.40;99.90
6843;DHT22;3460;52.028;8.916;2023-06-22T09:55:20;23.40;99.90
6843;DHT22;3460;52.028;8.916;2023-06-22T09:57:47;23.50;99.90
6843;DHT22;3460;52.028;8.916;2023-06-22T10:00:15;23.60;99.90
6843;DHT22;3460;52.028;8.916;2023-06-22T10:02:42;23.70;99.90
6843;DHT22;3460;52.028;8.916;2023-06-22T10:05:09;23.70;99.90
6843;DHT22;3460;52.028;8.916;2023-06-22T10:07:37;23.60;99.90
6843;DHT22;3460;52.028;8.916;2023-06-22T10:10:08;23.50;99.90
6843;DHT22;3460;52.028;8.916;2023-06-22T10:12:35;23.60;99.90
6843;DHT22;3460;52.028;8.916;2023-06-22T10:15:02;23.90;99.90
6843;DHT22;3460;52.028;8.916;2023-06-22T10:17:29;24.30;99.90
6843;DHT22;3460;52.028;8.916;2023-06-22T10:19:56;24.70;99.90
6843;DHT22;3460;52.028;8.916;2023-06-22T10:22:23;24.80;99.90
6843;DHT22;3460;52.028;8.916;2023-06-22T10:24:51;24.70;99.90
6843;DHT22;3460;52.028;8.916;2023-06-22T10:27:18;24.60;99.90
6843;DHT22;3460;52.028;8.916;2023-06-22T10:29:44;24.80;99.90
6843;DHT22;3460;52.028;8.916;2023-06-22T10:32:11;24.80;99.90
6843;DHT22;3460;52.028;8.916;2023-06-22T10:34:38;25.00;99.90
6843;DHT22;3460;52.028;8.916;2023-06-22T10:37:05;25.10;99.90
6843;DHT22;3460;52.028;8.916;2023-06-22T10:39:32;25.30;99.90
6843;DHT22;3460;52.028;8.916;2023-06-22T10:42:00;25.60;99.90
6843;DHT22;3460;52.028;8.916;2023-06-22T10:44:27;25.60;99.90
6843;DHT22;3460;52.028;8.916;2023-06-22T10:46:54;25.60;90.70
6843;DHT22;3460;52.028;8.916;2023-06-22T10:49:21;25.40;77.70
6843;DHT22;3460;52.028;8.916;2023-06-22T10:51:48;25.50;87.10
6843;DHT22;3460;52.028;8.916;2023-06-22T10:54:14;25.50;1.00
6843;DHT22;3460;52.028;8.916;2023-06-22T10:56:43;25.60;47.40
6843;DHT22;3460;52.028;8.916;2023-06-22T10:59:11;25.70;99.90
6843;DHT22;3460;52.028;8.916;2023-06-22T11:01:38;25.90;1.00
6843;DHT22;3460;52.028;8.916;2023-06-22T11:04:05;26.00;3.80
6843;DHT22;3460;52.028;8.916;2023-06-22T11:06:32;26.20;99.90
6843;DHT22;3460;52.028;8.916;2023-06-22T11:08:59;26.20;1.00
6843;DHT22;3460;52.028;8.916;2023-06-22T11:11:25;26.20;1.00
6843;DHT22;3460;52.028;8.916;2023-06-22T11:13:52;26.10;1.00
6843;DHT22;3460;52.028;8.916;2023-06-22T11:16:20;26.10;94.70
6843;DHT22;3460;52.028;8.916;2023-06-22T11:18:47;26.00;1.00
6843;DHT22;3460;52.028;8.916;2023-06-22T11:21:14;26.00;99.90
6843;DHT22;3460;52.028;8.916;2023-06-22T11:23:42;26.00;1.00
6843;DHT22;3460;52.028;8.916;2023-06-22T11:26:08;25.90;1.00
6843;DHT22;3460;52.028;8.916;2023-06-22T11:28:35;25.80;1.00
6843;DHT22;3460;52.028;8.916;2023-06-22T11:31:02;25.90;1.00
6843;DHT22;3460;52.028;8.916;2023-06-22T11:33:31;26.00;1.00
6843;DHT22;3460;52.028;8.916;2023-06-22T11:35:58;26.10;1.00
6843;DHT22;3460;52.028;8.916;2023-06-22T11:38:25;26.10;1.00
6843;DHT22;3460;52.028;8.916;2023-06-22T11:40:52;26.10;1.00
6843;DHT22;3460;52.028;8.916;2023-06-22T11:43:19;26.10;1.00
6843;DHT22;3460;52.028;8.916;2023-06-22T11:45:46;26.00;1.00
6843;DHT22;3460;52.028;8.916;2023-06-22T11:48:12;26.00;1.00
6843;DHT22;3460;52.028;8.916;2023-06-22T11:50:40;25.90;1.00
6843;DHT22;3460;52.028;8.916;2023-06-22T11:53:07;26.00;1.00
6843;DHT22;3460;52.028;8.916;2023-06-22T11:55:34;25.90;1.00
6843;DHT22;3460;52.028;8.916;2023-06-22T11:58:01;25.90;1.00
6843;DHT22;3460;52.028;8.916;2023-06-22T12:00:29;25.80;1.00
6843;DHT22;3460;52.028;8.916;2023-06-22T12:02:56;25.90;1.00
6843;DHT22;3460;52.028;8.916;2023-06-22T12:05:23;25.90;1.00
6843;DHT22;3460;52.028;8.916;2023-06-22T12:07:53;25.80;1.00
6843;DHT22;3460;52.028;8.916;2023-06-22T12:10:20;25.70;1.00
6843;DHT22;3460;52.028;8.916;2023-06-22T12:12:47;25.70;1.00
6843;DHT22;3460;52.028;8.916;2023-06-22T12:15:14;25.70;1.00
6843;DHT22;3460;52.028;8.916;2023-06-22T12:17:41;25.60;88.70
6843;DHT22;3460;52.028;8.916;2023-06-22T12:20:08;25.60;43.30
6843;DHT22;3460;52.028;8.916;2023-06-22T12:22:35;25.70;1.00
6843;DHT22;3460;52.028;8.916;2023-06-22T12:25:05;25.70;1.00
6843;DHT22;3460;52.028;8.916;2023-06-22T12:27:32;25.80;1.00
6843;DHT22;3460;52.028;8.916;2023-06-22T12:29:59;25.80;1.00
6843;DHT22;3460;52.028;8.916;2023-06-22T12:32:26;25.70;1.00
6843;DHT22;3460;52.028;8.916;2023-06-22T12:34:53;25.80;1.00
6843;DHT22;3460;52.028;8.916;2023-06-22T12:37:20;25.70;1.00
6843;DHT22;3460;52.028;8.916;2023-06-22T12:39:46;25.60;1.00
6843;DHT22;3460;52.028;8.916;2023-06-22T12:42:15;25.60;1.00
6843;DHT22;3460;52.028;8.916;2023-06-22T12:44:42;25.60;1.00
6843;DHT22;3460;52.028;8.916;2023-06-22T12:47:09;25.60;1.00
6843;DHT22;3460;52.028;8.916;2023-06-22T12:49:37;25.50;1.00
6843;DHT22;3460;52.028;8.916;2023-06-22T12:52:09;25.40;1.00
6843;DHT22;3460;52.028;8.916;2023-06-22T12:54:36;25.40;1.00
6843;DHT22;3460;52.028;8.916;2023-06-22T12:57:03;25.40;32.30
6843;DHT22;3460;52.028;8.916;2023-06-22T12:59:32;25.40;1.00
6843;DHT22;3460;52.028;8.916;2023-06-22T13:01:58;25.40;1.00
6843;DHT22;3460;52.028;8.916;2023-06-22T13:04:25;25.20;1.00
6843;DHT22;3460;52.028;8.916;2023-06-22T13:06:52;25.20;1.00
6843;DHT22;3460;52.028;8.916;2023-06-22T13:09:19;25.10;1.00
6843;DHT22;3460;52.028;8.916;2023-06-22T13:11:46;25.10;1.00
6843;DHT22;3460;52.028;8.916;2023-06-22T13:14:13;24.90;55.60
6843;DHT22;3460;52.028;8.916;2023-06-22T13:16:43;24.90;99.40
6843;DHT22;3460;52.028;8.916;2023-06-22T13:19:09;24.80;99.90
6843;DHT22;3460;52.028;8.916;2023-06-22T13:21:36;24.60;99.90
6843;DHT22;3460;52.028;8.916;2023-06-22T13:24:04;24.50;99.90
6843;DHT22;3460;52.028;8.916;2023-06-22T13:26:31;24.30;99.90
6843;DHT22;3460;52.028;8.916;2023-06-22T13:28:59;24.10;99.90
6843;DHT22;3460;52.028;8.916;2023-06-22T13:31:25;23.90;99.90
6843;DHT22;3460;52.028;8.916;2023-06-22T13:33:54;23.80;99.90
6843;DHT22;3460;52.028;8.916;2023-06-22T13:36:21;23.60;99.90
6843;DHT22;3460;52.028;8.916;2023-06-22T13:38:48;23.30;99.90
6843;DHT22;3460;52.028;8.916;2023-06-22T13:41:15;23.00;99.90
6843;DHT22;3460;52.028;8.916;2023-06-22T13:43:42;22.80;99.90
6843;DHT22;3460;52.028;8.916;2023-06-22T13:46:09;22.70;99.90
6843;DHT22;3460;52.028;8.916;2023-06-22T13:48:36;22.60;99.90
6843;DHT22;3460;52.028;8.916;2023-06-22T13:51:04;22.50;99.90
6843;DHT22;3460;52.028;8.916;2023-06-22T13:53:31;22.40;99.90
6843;DHT22;3460;52.028;8.916;2023-06-22T13:55:58;22.30;99.90
6843;DHT22;3460;52.028;8.916;2023-06-22T13:58:25;22.30;99.90
6843;DHT22;3460;52.028;8.916;2023-06-22T14:00:52;22.20;99.90
6843;DHT22;3460;52.028;8.916;2023-06-22T14:03:18;22.30;99.90
6843;DHT22;3460;52.028;8.916;2023-06-22T14:05:45;22.30;99.90
6843;DHT22;3460;52.028;8.916;2023-06-22T14:08:13;22.30;99.90
6843;DHT22;3460;52.028;8.916;2023-06-22T14:10:40;22.30;99.90
6843;DHT22;3460;52.028;8.916;2023-06-22T14:13:07;22.20;99.90
6843;DHT22;3460;52.028;8.916;2023-06-22T14:15:34;21.90;99.90
6843;DHT22;3460;52.028;8.916;2023-06-22T14:18:00;21.80;99.90
6843;DHT22;3460;52.028;8.916;2023-06-22T14:20:27;21.70;99.90
6843;DHT22;3460;52.028;8.916;2023-06-22T14:22:54;21.50;99.90
6843;DHT22;3460;52.028;8.916;2023-06-22T14:25:22;21.50;99.90
6843;DHT22;3460;52.028;8.916;2023-06-22T14:27:49;21.40;99.90
6843;DHT22;3460;52.028;8.916;2023-06-22T14:30:16;21.30;99.90
6843;DHT22;3460;52.028;8.916;2023-06-22T14:32:43;21.20;99.90
6843;DHT22;3460;52.028;8.916;2023-06-22T14:35:10;21.20;99.90
6843;DHT22;3460;52.028;8.916;2023-06-22T14:37:37;21.10;99.90
6843;DHT22;3460;52.028;8.916;2023-06-22T14:40:05;21.10;99.90
6843;DHT22;3460;52.028;8.916;2023-06-22T14:42:33;21.10;99.90
6843;DHT22;3460;52.028;8.916;2023-06-22T14:45:00;21.00;99.90
6843;DHT22;3460;52.028;8.916;2023-06-22T14:47:27;21.00;99.90
6843;DHT22;3460;52.028;8.916;2023-06-22T14:49:54;20.90;99.90
6843;DHT22;3460;52.028;8.916;2023-06-22T14:52:21;20.90;99.90
6843;DHT22;3460;52.028;8.916;2023-06-22T14:54:48;20.90;99.90
6843;DHT22;3460;52.028;8.916;2023-06-22T14:57:16;20.90;99.90
6843;DHT22;3460;52.028;8.916;2023-06-22T14:59:46;20.90;99.90
6843;DHT22;3460;52.028;8.916;2023-06-22T15:02:14;20.90;99.90
6843;DHT22;3460;52.028;8.916;2023-06-22T15:04:41;21.00;99.90
6843;DHT22;3460;52.028;8.916;2023-06-22T15:07:08;21.00;99.90
6843;DHT22;3460;52.028;8.916;2023-06-22T15:09:35;20.90;99.90
6843;DHT22;3460;52.028;8.916;2023-06-22T15:12:05;20.90;99.90
6843;DHT22;3460;52.028;8.916;2023-06-22T15:14:37;20.80;99.90
6843;DHT22;3460;52.028;8.916;2023-06-22T15:17:06;20.90;99.90
6843;DHT22;3460;52.028;8.916;2023-06-22T15:19:34;20.90;99.90
6843;DHT22;3460;52.028;8.916;2023-06-22T15:22:02;20.90;99.90
6843;DHT22;3460;52.028;8.916;2023-06-22T15:24:29;20.90;99.90
6843;DHT22;3460;52.028;8.916;2023-06-22T15:26:56;21.00;99.90
6843;DHT22;3460;52.028;8.916;2023-06-22T15:29:23;21.10;99.90
6843;DHT22;3460;52.028;8.916;2023-06-22T15:31:50;21.10;99.90
6843;DHT22;3460;52.028;8.916;2023-06-22T15:34:19;21.20;99.90
6843;DHT22;3460;52.028;8.916;2023-06-22T15:36:45;21.20;99.90
6843;DHT22;3460;52.028;8.916;2023-06-22T15:39:12;21.20;99.90
6843;DHT22;3460;52.028;8.916;2023-06-22T15:41:39;21.20;99.90
6843;DHT22;3460;52.028;8.916;2023-06-22T15:44:07;21.20;99.90
6843;DHT22;3460;52.028;8.916;2023-06-22T15:46:34;21.20;99.90
6843;DHT22;3460;52.028;8.916;2023-06-22T15:49:00;21.30;99.90
6843;DHT22;3460;52.028;8.916;2023-06-22T15:51:29;21.40;99.90
6843;DHT22;3460;52.028;8.916;2023-06-22T15:53:56;21.50;99.90
6843;DHT22;3460;52.028;8.916;2023-06-22T15:56:22;21.70;99.90
6843;DHT22;3460;52.028;8.916;2023-06-22T15:58:50;21.90;99.90
6843;DHT22;3460;52.028;8.916;2023-06-22T16:01:17;22.10;99.90
6843;DHT22;3460;52.028;8.916;2023-06-22T16:03:44;22.10;99.90
6843;DHT22;3460;52.028;8.916;2023-06-22T16:06:11;22.20;99.90